PWSweather.com
Personal Weather Stations
Station Observations
IPORTUGA89
BarosaPT

BarosaPT

Lat: 39.754028, Lon: -8.843

Elevation: 98

Station Type: Davis Vp2

High Low Average
Temperature 74.7°F23.7°C 53.8°F12.1°C 65.3°F18.5°C
Dew Point 63.0°F17.2°C 51.4°F10.8°C 57.5°F14.2°C
Winds 8.1 mph 13.0 kmh Calm Calm 3.0 mph SW4.8 kmh SW
Wind Gusts 15.0 mph24.1 kmh -- 7.0 mph11.3 kmh
Humidity 93% 52% 77%
Pressure 30.06 in1017.9 mb 29.74 in1007.1 mb -
Precipitation 0.01 in0.3 mm - -
Hour Temp Dew Point Humidity Winds Wind Gusts Pressure Precip Precip Rate Daily Precip Total
12:07 AM 67.1°F19.5°C 58.5°F14.7°C 74% 4.9 mph SE7.9 kmh SE 13.0 mph20.9 kmh 29.76 in1007.8 mb 0.00 in0.0 mm 0.00 in0.0 mm 0.00 in0.0 mm
12:17 AM 67.1°F19.5°C 58.8°F14.9°C 75% 6.0 mph SE9.7 kmh SE 13.0 mph20.9 kmh 29.76 in1007.8 mb 0.00 in0.0 mm 0.00 in0.0 mm 0.00 in0.0 mm
12:27 AM 66.9°F19.4°C 58.8°F14.9°C 75% 6.9 mph S11.1 kmh S 15.0 mph24.1 kmh 29.76 in1007.8 mb 0.00 in0.0 mm 0.00 in0.0 mm 0.00 in0.0 mm
12:37 AM 66.7°F19.3°C 59.0°F15.0°C 76% 6.0 mph SE9.7 kmh SE 11.0 mph17.7 kmh 29.75 in1007.5 mb 0.00 in0.0 mm 0.00 in0.0 mm 0.00 in0.0 mm
12:47 AM 66.6°F19.2°C 59.2°F15.1°C 77% 6.0 mph SE9.7 kmh SE 12.1 mph19.5 kmh 29.75 in1007.5 mb 0.00 in0.0 mm 0.00 in0.0 mm 0.00 in0.0 mm
12:57 AM 66.6°F19.2°C 59.2°F15.1°C 77% 4.0 mph SE6.4 kmh SE 8.9 mph14.3 kmh 29.77 in1008.1 mb 0.00 in0.0 mm 0.00 in0.0 mm 0.00 in0.0 mm
01:07 AM 66.6°F19.2°C 58.8°F14.9°C 76% 2.0 mph SE3.2 kmh SE 8.1 mph13.0 kmh 29.77 in1008.1 mb 0.00 in0.0 mm 0.00 in0.0 mm 0.00 in0.0 mm
01:17 AM 66.7°F19.3°C 59.0°F15.0°C 76% 6.9 mph SE11.1 kmh SE 11.0 mph17.7 kmh 29.76 in1007.8 mb 0.00 in0.0 mm 0.00 in0.0 mm 0.00 in0.0 mm
01:27 AM 66.7°F19.3°C 59.0°F15.0°C 76% 6.9 mph SE11.1 kmh SE 12.1 mph19.5 kmh 29.75 in1007.5 mb 0.00 in0.0 mm 0.00 in0.0 mm 0.00 in0.0 mm
01:37 AM 66.7°F19.3°C 59.0°F15.0°C 76% 6.0 mph SE9.7 kmh SE 12.1 mph19.5 kmh 29.76 in1007.8 mb 0.00 in0.0 mm 0.00 in0.0 mm 0.00 in0.0 mm
01:47 AM 66.6°F19.2°C 58.8°F14.9°C 76% 6.9 mph SSW11.1 kmh SSW 12.1 mph19.5 kmh 29.76 in1007.8 mb 0.00 in0.0 mm 0.00 in0.0 mm 0.00 in0.0 mm
01:57 AM 66.6°F19.2°C 58.8°F14.9°C 76% 6.9 mph SE11.1 kmh SE 14.1 mph22.7 kmh 29.77 in1008.1 mb 0.00 in0.0 mm 0.00 in0.0 mm 0.00 in0.0 mm
02:07 AM 66.6°F19.2°C 59.2°F15.1°C 77% 6.0 mph SSE9.7 kmh SSE 12.1 mph19.5 kmh 29.78 in1008.5 mb 0.00 in0.0 mm 0.00 in0.0 mm 0.00 in0.0 mm
02:17 AM 66.6°F19.2°C 58.8°F14.9°C 76% 4.9 mph SE7.9 kmh SE 11.0 mph17.7 kmh 29.77 in1008.1 mb 0.00 in0.0 mm 0.00 in0.0 mm 0.00 in0.0 mm
02:27 AM 66.6°F19.2°C 58.8°F14.9°C 76% 4.9 mph SE7.9 kmh SE 10.1 mph16.3 kmh 29.77 in1008.1 mb 0.00 in0.0 mm 0.00 in0.0 mm 0.00 in0.0 mm
02:37 AM 66.6°F19.2°C 58.8°F14.9°C 76% 4.9 mph SSE7.9 kmh SSE 10.1 mph16.3 kmh 29.77 in1008.1 mb 0.00 in0.0 mm 0.00 in0.0 mm 0.00 in0.0 mm
02:47 AM 66.2°F19.0°C 59.2°F15.1°C 78% 6.9 mph ESE11.1 kmh ESE 12.1 mph19.5 kmh 29.75 in1007.5 mb 0.00 in0.0 mm 0.00 in0.0 mm 0.00 in0.0 mm
02:57 AM 65.7°F18.7°C 59.4°F15.2°C 80% 6.9 mph SE11.1 kmh SE 13.0 mph20.9 kmh 29.74 in1007.1 mb 0.00 in0.0 mm 0.00 in0.0 mm 0.00 in0.0 mm
03:07 AM 65.7°F18.7°C 59.7°F15.4°C 81% 4.9 mph SSE7.9 kmh SSE 11.0 mph17.7 kmh 29.75 in1007.5 mb 0.00 in0.0 mm 0.00 in0.0 mm 0.00 in0.0 mm
03:17 AM 65.5°F18.6°C 59.9°F15.5°C 82% 2.9 mph SE4.7 kmh SE 6.9 mph11.1 kmh 29.76 in1007.8 mb 0.00 in0.0 mm 0.00 in0.0 mm 0.00 in0.0 mm
03:27 AM 65.1°F18.4°C 59.9°F15.5°C 83% 2.9 mph SSE4.7 kmh SSE 8.1 mph13.0 kmh 29.75 in1007.5 mb 0.00 in0.0 mm 0.00 in0.0 mm 0.00 in0.0 mm
03:37 AM 64.9°F18.3°C 59.9°F15.5°C 84% 4.0 mph SSE6.4 kmh SSE 8.9 mph14.3 kmh 29.75 in1007.5 mb 0.00 in0.0 mm 0.00 in0.0 mm 0.00 in0.0 mm
03:47 AM 64.9°F18.3°C 59.9°F15.5°C 84% 4.0 mph SSW6.4 kmh SSW 8.9 mph14.3 kmh 29.75 in1007.5 mb 0.00 in0.0 mm 0.00 in0.0 mm 0.00 in0.0 mm
03:57 AM 64.9°F18.3°C 59.9°F15.5°C 84% 6.0 mph SSE9.7 kmh SSE 8.9 mph14.3 kmh 29.75 in1007.5 mb 0.00 in0.0 mm 0.00 in0.0 mm 0.00 in0.0 mm
04:07 AM 64.9°F18.3°C 59.9°F15.5°C 84% 6.0 mph ESE9.7 kmh ESE 10.1 mph16.3 kmh 29.75 in1007.5 mb 0.00 in0.0 mm 0.00 in0.0 mm 0.00 in0.0 mm
04:17 AM 64.9°F18.3°C 60.3°F15.7°C 85% 4.0 mph SE6.4 kmh SE 8.9 mph14.3 kmh 29.75 in1007.5 mb 0.00 in0.0 mm 0.00 in0.0 mm 0.00 in0.0 mm
04:27 AM 65.1°F18.4°C 60.4°F15.8°C 85% 2.9 mph SE4.7 kmh SE 6.9 mph11.1 kmh 29.76 in1007.8 mb 0.00 in0.0 mm 0.00 in0.0 mm 0.00 in0.0 mm
04:37 AM 65.1°F18.4°C 60.1°F15.6°C 84% 2.9 mph SE4.7 kmh SE 6.9 mph11.1 kmh 29.76 in1007.8 mb 0.00 in0.0 mm 0.00 in0.0 mm 0.00 in0.0 mm
04:47 AM 65.5°F18.6°C 60.3°F15.7°C 83% 4.9 mph S7.9 kmh S 10.1 mph16.3 kmh 29.76 in1007.8 mb 0.00 in0.0 mm 0.00 in0.0 mm 0.00 in0.0 mm
04:57 AM 65.8°F18.8°C 60.3°F15.7°C 82% 2.9 mph SSE4.7 kmh SSE 8.9 mph14.3 kmh 29.76 in1007.8 mb 0.00 in0.0 mm 0.00 in0.0 mm 0.00 in0.0 mm
05:07 AM 66.0°F18.9°C 60.1°F15.6°C 81% 4.9 mph ESE7.9 kmh ESE 8.9 mph14.3 kmh 29.76 in1007.8 mb 0.00 in0.0 mm 0.00 in0.0 mm 0.00 in0.0 mm
05:17 AM 66.0°F18.9°C 60.1°F15.6°C 81% 2.9 mph ESE4.7 kmh ESE 10.1 mph16.3 kmh 29.77 in1008.1 mb 0.00 in0.0 mm 0.00 in0.0 mm 0.00 in0.0 mm
05:27 AM 66.0°F18.9°C 60.4°F15.8°C 82% 2.9 mph WSW4.7 kmh WSW 13.0 mph20.9 kmh 29.77 in1008.1 mb 0.00 in0.0 mm 0.00 in0.0 mm 0.00 in0.0 mm
05:37 AM 66.0°F18.9°C 60.4°F15.8°C 82% 4.0 mph SW6.4 kmh SW 12.1 mph19.5 kmh 29.78 in1008.5 mb 0.00 in0.0 mm 0.00 in0.0 mm 0.00 in0.0 mm
05:47 AM 65.8°F18.8°C 60.6°F15.9°C 83% 6.0 mph SW9.7 kmh SW 14.1 mph22.7 kmh 29.79 in1008.8 mb 0.00 in0.0 mm 0.00 in0.0 mm 0.00 in0.0 mm
05:58 AM 64.9°F18.3°C 60.3°F15.7°C 85% 6.0 mph SW9.7 kmh SW 13.0 mph20.9 kmh 29.80 in1009.1 mb 0.01 in0.3 mm 0.05 in1.3 mm 0.01 in0.3 mm
06:08 AM 64.2°F17.9°C 60.6°F15.9°C 88% 4.0 mph SSW6.4 kmh SSW 10.1 mph16.3 kmh 29.81 in1009.5 mb 0.01 in0.3 mm 0.00 in0.0 mm 0.01 in0.3 mm
06:18 AM 63.5°F17.5°C 60.3°F15.7°C 89% 6.0 mph SW9.7 kmh SW 13.0 mph20.9 kmh 29.81 in1009.5 mb 0.01 in0.3 mm 0.00 in0.0 mm 0.01 in0.3 mm
06:28 AM 63.1°F17.3°C 60.1°F15.6°C 90% 4.0 mph W6.4 kmh W 8.1 mph13.0 kmh 29.81 in1009.5 mb 0.01 in0.3 mm 0.00 in0.0 mm 0.01 in0.3 mm
06:38 AM 62.8°F17.1°C 59.7°F15.4°C 90% 2.0 mph W3.2 kmh W 8.1 mph13.0 kmh 29.82 in1009.8 mb 0.01 in0.3 mm 0.00 in0.0 mm 0.01 in0.3 mm
06:48 AM 62.6°F17.0°C 59.9°F15.5°C 91% 0.9 mph W1.4 kmh W 2.9 mph4.7 kmh 29.82 in1009.8 mb 0.01 in0.3 mm 0.00 in0.0 mm 0.01 in0.3 mm
06:58 AM 62.4°F16.9°C 59.7°F15.4°C 91% 2.0 mph WNW3.2 kmh WNW 4.9 mph7.9 kmh 29.82 in1009.8 mb 0.00 in0.0 mm 0.00 in0.0 mm 0.01 in0.3 mm
07:08 AM 62.4°F16.9°C 59.7°F15.4°C 91% 0.9 mph NW1.4 kmh NW 4.0 mph6.4 kmh 29.83 in1010.2 mb 0.00 in0.0 mm 0.00 in0.0 mm 0.01 in0.3 mm
07:18 AM 62.2°F16.8°C 59.9°F15.5°C 92% 0.9 mph NW1.4 kmh NW 2.9 mph4.7 kmh 29.83 in1010.2 mb 0.00 in0.0 mm 0.00 in0.0 mm 0.01 in0.3 mm
07:28 AM 62.2°F16.8°C 59.9°F15.5°C 92% 0.9 mph W1.4 kmh W 2.9 mph4.7 kmh 29.83 in1010.2 mb 0.00 in0.0 mm 0.00 in0.0 mm 0.01 in0.3 mm
07:38 AM 62.2°F16.8°C 59.9°F15.5°C 92% 0.9 mph W1.4 kmh W 2.9 mph4.7 kmh 29.84 in1010.5 mb 0.00 in0.0 mm 0.00 in0.0 mm 0.01 in0.3 mm
07:49 AM 62.2°F16.8°C 59.9°F15.5°C 92% 0.9 mph W1.4 kmh W 2.0 mph3.2 kmh 29.84 in1010.5 mb 0.00 in0.0 mm 0.00 in0.0 mm 0.01 in0.3 mm
07:59 AM 62.2°F16.8°C 59.9°F15.5°C 92% 0.9 mph SSE1.4 kmh SSE 4.0 mph6.4 kmh 29.85 in1010.8 mb 0.00 in0.0 mm 0.00 in0.0 mm 0.01 in0.3 mm
08:09 AM 62.2°F16.8°C 60.3°F15.7°C 93% 0.9 mph S1.4 kmh S 2.9 mph4.7 kmh 29.86 in1011.2 mb 0.00 in0.0 mm 0.00 in0.0 mm 0.01 in0.3 mm
08:19 AM 62.6°F17.0°C 60.6°F15.9°C 93% 0.9 mph S1.4 kmh S 4.0 mph6.4 kmh 29.87 in1011.5 mb 0.00 in0.0 mm 0.00 in0.0 mm 0.01 in0.3 mm
08:29 AM 63.0°F17.2°C 61.0°F16.1°C 93% 0.9 mph S1.4 kmh S 2.0 mph3.2 kmh 29.87 in1011.5 mb 0.00 in0.0 mm 0.00 in0.0 mm 0.01 in0.3 mm
08:39 AM 63.9°F17.7°C 61.9°F16.6°C 93% 2.9 mph SE4.7 kmh SE 4.9 mph7.9 kmh 29.87 in1011.5 mb 0.00 in0.0 mm 0.00 in0.0 mm 0.01 in0.3 mm
08:49 AM 64.8°F18.2°C 62.6°F17.0°C 93% 2.9 mph SE4.7 kmh SE 4.9 mph7.9 kmh 29.87 in1011.5 mb 0.00 in0.0 mm 0.00 in0.0 mm 0.01 in0.3 mm
08:59 AM 65.1°F18.4°C 62.8°F17.1°C 92% 4.0 mph E6.4 kmh E 6.9 mph11.1 kmh 29.87 in1011.5 mb 0.00 in0.0 mm 0.00 in0.0 mm 0.01 in0.3 mm
09:09 AM 65.5°F18.6°C 62.8°F17.1°C 91% 4.0 mph SE6.4 kmh SE 6.9 mph11.1 kmh 29.87 in1011.5 mb 0.00 in0.0 mm 0.00 in0.0 mm 0.01 in0.3 mm
09:19 AM 65.7°F18.7°C 63.0°F17.2°C 91% 2.0 mph SE3.2 kmh SE 4.0 mph6.4 kmh 29.88 in1011.9 mb 0.00 in0.0 mm 0.00 in0.0 mm 0.01 in0.3 mm
09:29 AM 66.0°F18.9°C 63.0°F17.2°C 90% 2.0 mph N3.2 kmh N 2.9 mph4.7 kmh 29.88 in1011.9 mb 0.00 in0.0 mm 0.00 in0.0 mm 0.01 in0.3 mm
09:39 AM 66.4°F19.1°C 63.0°F17.2°C 89% 2.0 mph NW3.2 kmh NW 4.0 mph6.4 kmh 29.89 in1012.2 mb 0.00 in0.0 mm 0.00 in0.0 mm 0.01 in0.3 mm
09:49 AM 66.9°F19.4°C 63.0°F17.2°C 87% 4.0 mph WNW6.4 kmh WNW 8.1 mph13.0 kmh 29.89 in1012.2 mb 0.00 in0.0 mm 0.00 in0.0 mm 0.01 in0.3 mm
09:59 AM 67.3°F19.6°C 63.0°F17.2°C 86% 4.0 mph NW6.4 kmh NW 8.1 mph13.0 kmh 29.89 in1012.2 mb 0.00 in0.0 mm 0.00 in0.0 mm 0.01 in0.3 mm
10:09 AM 67.6°F19.8°C 63.0°F17.2°C 85% 2.9 mph WSW4.7 kmh WSW 6.9 mph11.1 kmh 29.89 in1012.2 mb 0.00 in0.0 mm 0.00 in0.0 mm 0.01 in0.3 mm
10:19 AM 68.0°F20.0°C 62.6°F17.0°C 83% 2.9 mph NW4.7 kmh NW 8.1 mph13.0 kmh 29.89 in1012.2 mb 0.00 in0.0 mm 0.00 in0.0 mm 0.01 in0.3 mm
10:29 AM 68.5°F20.3°C 62.4°F16.9°C 81% 4.0 mph NW6.4 kmh NW 8.1 mph13.0 kmh 29.90 in1012.5 mb 0.00 in0.0 mm 0.00 in0.0 mm 0.01 in0.3 mm
10:39 AM 69.1°F20.6°C 61.9°F16.6°C 78% 4.0 mph NNW6.4 kmh NNW 8.9 mph14.3 kmh 29.90 in1012.5 mb 0.00 in0.0 mm 0.00 in0.0 mm 0.01 in0.3 mm
10:49 AM 69.4°F20.8°C 61.9°F16.6°C 77% 2.9 mph W4.7 kmh W 8.1 mph13.0 kmh 29.90 in1012.5 mb 0.00 in0.0 mm 0.00 in0.0 mm 0.01 in0.3 mm
10:59 AM 69.6°F20.9°C 62.1°F16.7°C 77% 2.9 mph WSW4.7 kmh WSW 8.9 mph14.3 kmh 29.89 in1012.2 mb 0.00 in0.0 mm 0.00 in0.0 mm 0.01 in0.3 mm
11:09 AM 71.1°F21.7°C 61.5°F16.4°C 72% 2.9 mph SSW4.7 kmh SSW 8.1 mph13.0 kmh 29.89 in1012.2 mb 0.00 in0.0 mm 0.00 in0.0 mm 0.01 in0.3 mm
11:19 AM 71.6°F22.0°C 59.7°F15.4°C 66% 6.0 mph WSW9.7 kmh WSW 12.1 mph19.5 kmh 29.90 in1012.5 mb 0.00 in0.0 mm 0.00 in0.0 mm 0.01 in0.3 mm
11:29 AM 71.1°F21.7°C 58.6°F14.8°C 65% 4.9 mph WSW7.9 kmh WSW 6.9 mph11.1 kmh 29.90 in1012.5 mb 0.00 in0.0 mm 0.00 in0.0 mm 0.01 in0.3 mm
11:39 AM 71.1°F21.7°C 59.9°F15.5°C 68% 4.0 mph WNW6.4 kmh WNW 10.1 mph16.3 kmh 29.91 in1012.9 mb 0.00 in0.0 mm 0.00 in0.0 mm 0.01 in0.3 mm
11:50 AM 71.4°F21.9°C 59.9°F15.5°C 67% 4.9 mph WNW7.9 kmh WNW 8.9 mph14.3 kmh 29.91 in1012.9 mb 0.00 in0.0 mm 0.00 in0.0 mm 0.01 in0.3 mm
12:00 PM 72.0°F22.2°C 59.5°F15.3°C 65% 6.0 mph NW9.7 kmh NW 8.9 mph14.3 kmh 29.92 in1013.2 mb 0.00 in0.0 mm 0.00 in0.0 mm 0.01 in0.3 mm
12:10 PM 72.7°F22.6°C 59.7°F15.4°C 64% 6.0 mph WSW9.7 kmh WSW 14.1 mph22.7 kmh 29.92 in1013.2 mb 0.00 in0.0 mm 0.00 in0.0 mm 0.01 in0.3 mm
12:20 PM 72.5°F22.5°C 59.5°F15.3°C 64% 4.9 mph WSW7.9 kmh WSW 13.0 mph20.9 kmh 29.91 in1012.9 mb 0.00 in0.0 mm 0.00 in0.0 mm 0.01 in0.3 mm
12:30 PM 73.2°F22.9°C 58.1°F14.5°C 59% 6.0 mph W9.7 kmh W 13.0 mph20.9 kmh 29.91 in1012.9 mb 0.00 in0.0 mm 0.00 in0.0 mm 0.01 in0.3 mm
12:40 PM 73.8°F23.2°C 58.1°F14.5°C 58% 6.9 mph WSW11.1 kmh WSW 14.1 mph22.7 kmh 29.92 in1013.2 mb 0.00 in0.0 mm 0.00 in0.0 mm 0.01 in0.3 mm
12:50 PM 73.9°F23.3°C 57.7°F14.3°C 57% 6.0 mph WSW9.7 kmh WSW 13.0 mph20.9 kmh 29.92 in1013.2 mb 0.00 in0.0 mm 0.00 in0.0 mm 0.01 in0.3 mm
01:00 PM 74.1°F23.4°C 56.8°F13.8°C 55% 8.1 mph WSW13.0 kmh WSW 14.1 mph22.7 kmh 29.92 in1013.2 mb 0.00 in0.0 mm 0.00 in0.0 mm 0.01 in0.3 mm
01:10 PM 73.8°F23.2°C 57.6°F14.2°C 57% 6.9 mph WNW11.1 kmh WNW 13.0 mph20.9 kmh 29.92 in1013.2 mb 0.00 in0.0 mm 0.00 in0.0 mm 0.01 in0.3 mm
01:20 PM 74.1°F23.4°C 57.9°F14.4°C 57% 6.9 mph WNW11.1 kmh WNW 14.1 mph22.7 kmh 29.92 in1013.2 mb 0.00 in0.0 mm 0.00 in0.0 mm 0.01 in0.3 mm
01:30 PM 74.3°F23.5°C 57.6°F14.2°C 56% 8.1 mph W13.0 kmh W 13.0 mph20.9 kmh 29.92 in1013.2 mb 0.00 in0.0 mm 0.00 in0.0 mm 0.01 in0.3 mm
01:40 PM 74.5°F23.6°C 58.3°F14.6°C 57% 6.0 mph N9.7 kmh N 11.0 mph17.7 kmh 29.92 in1013.2 mb 0.00 in0.0 mm 0.00 in0.0 mm 0.01 in0.3 mm
01:50 PM 73.9°F23.3°C 57.7°F14.3°C 57% 6.0 mph WSW9.7 kmh WSW 13.0 mph20.9 kmh 29.92 in1013.2 mb 0.00 in0.0 mm 0.00 in0.0 mm 0.01 in0.3 mm
02:00 PM 72.5°F22.5°C 57.4°F14.1°C 59% 4.0 mph S6.4 kmh S 8.9 mph14.3 kmh 29.93 in1013.5 mb 0.00 in0.0 mm 0.00 in0.0 mm 0.01 in0.3 mm
02:10 PM 73.9°F23.3°C 58.6°F14.8°C 59% 6.9 mph SW11.1 kmh SW 14.1 mph22.7 kmh 29.93 in1013.5 mb 0.00 in0.0 mm 0.00 in0.0 mm 0.01 in0.3 mm
02:20 PM 73.9°F23.3°C 58.3°F14.6°C 58% 6.9 mph NW11.1 kmh NW 13.0 mph20.9 kmh 29.93 in1013.5 mb 0.00 in0.0 mm 0.00 in0.0 mm 0.01 in0.3 mm
02:30 PM 74.1°F23.4°C 58.5°F14.7°C 58% 6.0 mph W9.7 kmh W 13.0 mph20.9 kmh 29.93 in1013.5 mb 0.00 in0.0 mm 0.00 in0.0 mm 0.01 in0.3 mm
02:40 PM 73.8°F23.2°C 58.1°F14.5°C 58% 4.9 mph SSW7.9 kmh SSW 10.1 mph16.3 kmh 29.93 in1013.5 mb 0.00 in0.0 mm 0.00 in0.0 mm 0.01 in0.3 mm
02:50 PM 74.5°F23.6°C 57.7°F14.3°C 56% 6.9 mph SW11.1 kmh SW 13.0 mph20.9 kmh 29.93 in1013.5 mb 0.00 in0.0 mm 0.00 in0.0 mm 0.01 in0.3 mm
03:00 PM 74.7°F23.7°C 57.4°F14.1°C 55% 6.9 mph WNW11.1 kmh WNW 14.1 mph22.7 kmh 29.93 in1013.5 mb 0.00 in0.0 mm 0.00 in0.0 mm 0.01 in0.3 mm
03:10 PM 74.7°F23.7°C 56.8°F13.8°C 54% 6.0 mph NW9.7 kmh NW 12.1 mph19.5 kmh 29.94 in1013.9 mb 0.00 in0.0 mm 0.00 in0.0 mm 0.01 in0.3 mm
03:20 PM 74.7°F23.7°C 56.5°F13.6°C 53% 6.9 mph SW11.1 kmh SW 13.0 mph20.9 kmh 29.95 in1014.2 mb 0.00 in0.0 mm 0.00 in0.0 mm 0.01 in0.3 mm
03:30 PM 74.5°F23.6°C 56.3°F13.5°C 53% 4.9 mph WSW7.9 kmh WSW 11.0 mph17.7 kmh 29.95 in1014.2 mb 0.00 in0.0 mm 0.00 in0.0 mm 0.01 in0.3 mm
03:40 PM 73.9°F23.3°C 55.8°F13.2°C 53% 6.9 mph SW11.1 kmh SW 13.0 mph20.9 kmh 29.95 in1014.2 mb 0.00 in0.0 mm 0.00 in0.0 mm 0.01 in0.3 mm
03:50 PM 73.9°F23.3°C 55.2°F12.9°C 52% 6.0 mph W9.7 kmh W 14.1 mph22.7 kmh 29.96 in1014.6 mb 0.00 in0.0 mm 0.00 in0.0 mm 0.01 in0.3 mm
04:00 PM 74.1°F23.4°C 55.4°F13.0°C 52% 6.9 mph WSW11.1 kmh WSW 14.1 mph22.7 kmh 29.96 in1014.6 mb 0.00 in0.0 mm 0.00 in0.0 mm 0.01 in0.3 mm
04:10 PM 73.6°F23.1°C 55.4°F13.0°C 53% 6.9 mph WSW11.1 kmh WSW 12.1 mph19.5 kmh 29.96 in1014.6 mb 0.00 in0.0 mm 0.00 in0.0 mm 0.01 in0.3 mm
04:20 PM 73.6°F23.1°C 54.9°F12.7°C 52% 6.0 mph W9.7 kmh W 14.1 mph22.7 kmh 29.96 in1014.6 mb 0.00 in0.0 mm 0.00 in0.0 mm 0.01 in0.3 mm
04:30 PM 72.9°F22.7°C 54.1°F12.3°C 52% 6.9 mph WSW11.1 kmh WSW 12.1 mph19.5 kmh 29.96 in1014.6 mb 0.00 in0.0 mm 0.00 in0.0 mm 0.01 in0.3 mm
04:40 PM 72.0°F22.2°C 54.3°F12.4°C 54% 4.9 mph WSW7.9 kmh WSW 11.0 mph17.7 kmh 29.96 in1014.6 mb 0.00 in0.0 mm 0.00 in0.0 mm 0.01 in0.3 mm
04:50 PM 71.6°F22.0°C 54.1°F12.3°C 54% 2.9 mph W4.7 kmh W 8.1 mph13.0 kmh 29.96 in1014.6 mb 0.00 in0.0 mm 0.00 in0.0 mm 0.01 in0.3 mm
05:00 PM 71.4°F21.9°C 54.5°F12.5°C 55% 4.9 mph NW7.9 kmh NW 10.1 mph16.3 kmh 29.97 in1014.9 mb 0.00 in0.0 mm 0.00 in0.0 mm 0.01 in0.3 mm
05:10 PM 70.9°F21.6°C 54.3°F12.4°C 56% 2.9 mph SW4.7 kmh SW 8.1 mph13.0 kmh 29.96 in1014.6 mb 0.00 in0.0 mm 0.00 in0.0 mm 0.01 in0.3 mm
05:20 PM 69.6°F20.9°C 54.1°F12.3°C 58% 4.0 mph WSW6.4 kmh WSW 8.1 mph13.0 kmh 29.97 in1014.9 mb 0.00 in0.0 mm 0.00 in0.0 mm 0.01 in0.3 mm
05:30 PM 68.7°F20.4°C 54.3°F12.4°C 60% 2.9 mph WSW4.7 kmh WSW 8.1 mph13.0 kmh 29.97 in1014.9 mb 0.00 in0.0 mm 0.00 in0.0 mm 0.01 in0.3 mm
05:40 PM 67.6°F19.8°C 54.7°F12.6°C 63% 2.0 mph SW3.2 kmh SW 4.0 mph6.4 kmh 29.98 in1015.2 mb 0.00 in0.0 mm 0.00 in0.0 mm 0.01 in0.3 mm
05:50 PM 66.4°F19.1°C 54.7°F12.6°C 66% 0.9 mph WSW1.4 kmh WSW 2.9 mph4.7 kmh 29.98 in1015.2 mb 0.00 in0.0 mm 0.00 in0.0 mm 0.01 in0.3 mm
06:00 PM 64.9°F18.3°C 54.1°F12.3°C 68% Calm Calm 2.9 mph4.7 kmh 29.98 in1015.2 mb 0.00 in0.0 mm 0.00 in0.0 mm 0.01 in0.3 mm
06:10 PM 63.7°F17.6°C 54.1°F12.3°C 71% Calm Calm 2.0 mph3.2 kmh 29.99 in1015.6 mb 0.00 in0.0 mm 0.00 in0.0 mm 0.01 in0.3 mm
06:21 PM 62.4°F16.9°C 54.0°F12.2°C 74% 0.9 mph WSW1.4 kmh WSW 2.0 mph3.2 kmh 29.99 in1015.6 mb 0.00 in0.0 mm 0.00 in0.0 mm 0.01 in0.3 mm
06:31 PM 61.2°F16.2°C 54.0°F12.2°C 77% 0.9 mph WSW1.4 kmh WSW 2.9 mph4.7 kmh 30.00 in1015.9 mb 0.00 in0.0 mm 0.00 in0.0 mm 0.01 in0.3 mm
06:41 PM 60.3°F15.7°C 53.8°F12.1°C 79% 0.9 mph WSW1.4 kmh WSW 2.9 mph4.7 kmh 30.00 in1015.9 mb 0.00 in0.0 mm 0.00 in0.0 mm 0.01 in0.3 mm
06:51 PM 59.7°F15.4°C 53.6°F12.0°C 80% 0.9 mph WSW1.4 kmh WSW 2.9 mph4.7 kmh 30.01 in1016.3 mb 0.00 in0.0 mm 0.00 in0.0 mm 0.01 in0.3 mm
07:01 PM 59.2°F15.1°C 53.6°F12.0°C 82% 0.9 mph WSW1.4 kmh WSW 2.9 mph4.7 kmh 30.01 in1016.3 mb 0.00 in0.0 mm 0.00 in0.0 mm 0.01 in0.3 mm
07:11 PM 58.6°F14.8°C 53.4°F11.9°C 83% Calm Calm 0.9 mph1.4 kmh 30.01 in1016.3 mb 0.00 in0.0 mm 0.00 in0.0 mm 0.01 in0.3 mm
07:21 PM 58.1°F14.5°C 53.2°F11.8°C 84% 0.9 mph WSW1.4 kmh WSW 2.0 mph3.2 kmh 30.02 in1016.6 mb 0.00 in0.0 mm 0.00 in0.0 mm 0.01 in0.3 mm
07:31 PM 57.7°F14.3°C 53.2°F11.8°C 85% 0.9 mph WSW1.4 kmh WSW 2.0 mph3.2 kmh 30.02 in1016.6 mb 0.00 in0.0 mm 0.00 in0.0 mm 0.01 in0.3 mm
07:41 PM 57.4°F14.1°C 53.2°F11.8°C 86% Calm Calm 2.0 mph3.2 kmh 30.03 in1016.9 mb 0.00 in0.0 mm 0.00 in0.0 mm 0.01 in0.3 mm
07:51 PM 57.0°F13.9°C 53.2°F11.8°C 87% Calm Calm 2.0 mph3.2 kmh 30.03 in1016.9 mb 0.00 in0.0 mm 0.00 in0.0 mm 0.01 in0.3 mm
08:01 PM 56.7°F13.7°C 52.9°F11.6°C 87% Calm Calm -- 30.04 in1017.3 mb 0.00 in0.0 mm 0.00 in0.0 mm 0.01 in0.3 mm
08:11 PM 56.5°F13.6°C 52.9°F11.6°C 88% Calm Calm -- 30.03 in1016.9 mb 0.00 in0.0 mm 0.00 in0.0 mm 0.01 in0.3 mm
08:22 PM 55.9°F13.3°C 52.5°F11.4°C 88% Calm Calm -- 30.04 in1017.3 mb 0.00 in0.0 mm 0.00 in0.0 mm 0.01 in0.3 mm
08:32 PM 55.6°F13.1°C 52.2°F11.2°C 88% Calm Calm -- 30.04 in1017.3 mb 0.00 in0.0 mm 0.00 in0.0 mm 0.01 in0.3 mm
08:42 PM 55.2°F12.9°C 52.0°F11.1°C 89% Calm Calm -- 30.05 in1017.6 mb 0.00 in0.0 mm 0.00 in0.0 mm 0.01 in0.3 mm
08:52 PM 55.0°F12.8°C 51.8°F11.0°C 89% Calm Calm -- 30.05 in1017.6 mb 0.00 in0.0 mm 0.00 in0.0 mm 0.01 in0.3 mm
09:02 PM 54.9°F12.7°C 52.0°F11.1°C 90% Calm Calm -- 30.05 in1017.6 mb 0.00 in0.0 mm 0.00 in0.0 mm 0.01 in0.3 mm
09:12 PM 54.7°F12.6°C 51.8°F11.0°C 90% Calm Calm -- 30.05 in1017.6 mb 0.00 in0.0 mm 0.00 in0.0 mm 0.01 in0.3 mm
09:22 PM 54.3°F12.4°C 51.8°F11.0°C 91% Calm Calm -- 30.05 in1017.6 mb 0.00 in0.0 mm 0.00 in0.0 mm 0.01 in0.3 mm
09:33 PM 54.3°F12.4°C 51.8°F11.0°C 91% Calm Calm -- 30.05 in1017.6 mb 0.00 in0.0 mm 0.00 in0.0 mm 0.01 in0.3 mm
09:43 PM 54.1°F12.3°C 51.6°F10.9°C 91% Calm Calm -- 30.05 in1017.6 mb 0.00 in0.0 mm 0.00 in0.0 mm 0.01 in0.3 mm
09:53 PM 54.1°F12.3°C 51.6°F10.9°C 91% Calm Calm -- 30.06 in1017.9 mb 0.00 in0.0 mm 0.00 in0.0 mm 0.01 in0.3 mm
10:03 PM 54.0°F12.2°C 51.4°F10.8°C 91% Calm Calm -- 30.06 in1017.9 mb 0.00 in0.0 mm 0.00 in0.0 mm 0.01 in0.3 mm
10:13 PM 54.0°F12.2°C 51.6°F10.9°C 92% Calm Calm -- 30.06 in1017.9 mb 0.00 in0.0 mm 0.00 in0.0 mm 0.01 in0.3 mm
10:23 PM 53.8°F12.1°C 51.4°F10.8°C 92% Calm Calm -- 30.06 in1017.9 mb 0.00 in0.0 mm 0.00 in0.0 mm 0.01 in0.3 mm
10:33 PM 54.0°F12.2°C 51.6°F10.9°C 92% Calm Calm -- 30.06 in1017.9 mb 0.00 in0.0 mm 0.00 in0.0 mm 0.01 in0.3 mm
10:43 PM 54.0°F12.2°C 51.6°F10.9°C 92% Calm Calm -- 30.06 in1017.9 mb 0.00 in0.0 mm 0.00 in0.0 mm 0.01 in0.3 mm
10:54 PM 54.0°F12.2°C 51.6°F10.9°C 92% Calm Calm -- 30.06 in1017.9 mb 0.00 in0.0 mm 0.00 in0.0 mm 0.01 in0.3 mm
11:04 PM 54.0°F12.2°C 51.6°F10.9°C 92% Calm Calm -- 30.06 in1017.9 mb 0.00 in0.0 mm 0.00 in0.0 mm 0.01 in0.3 mm
11:14 PM 54.0°F12.2°C 51.6°F10.9°C 92% Calm Calm -- 30.06 in1017.9 mb 0.00 in0.0 mm 0.00 in0.0 mm 0.01 in0.3 mm
11:24 PM 54.3°F12.4°C 52.3°F11.3°C 93% Calm Calm -- 30.06 in1017.9 mb 0.00 in0.0 mm 0.00 in0.0 mm 0.01 in0.3 mm
11:34 PM 54.9°F12.7°C 52.9°F11.6°C 93% Calm Calm -- 30.06 in1017.9 mb 0.00 in0.0 mm 0.00 in0.0 mm 0.01 in0.3 mm
11:44 PM 55.6°F13.1°C 53.6°F12.0°C 93% Calm Calm 0.9 mph1.4 kmh 30.06 in1017.9 mb 0.00 in0.0 mm 0.00 in0.0 mm 0.01 in0.3 mm
11:54 PM 55.8°F13.2°C 53.8°F12.1°C 93% Calm Calm 2.0 mph3.2 kmh 30.06 in1017.9 mb 0.00 in0.0 mm 0.00 in0.0 mm 0.01 in0.3 mm